This is the latest recevied weather packets stored in our database for station/object OH2HCY. If no packets are shown the sender has not sent any weather packets the latest 10 day(s).
| Time | Temp. | Humidity | Pressure | Rain* | Wind** | Luminosity | Snow |
|---|---|---|---|---|---|---|---|
| 1778154975 | 13.33° C | 26% | 1010.8 hPa | - | - | - | - |
| 1778154425 | 13.33° C | 27% | 1011.1 hPa | - | - | - | - |
| 1778153865 | 12.78° C | 27% | 1011.3 hPa | - | - | - | - |
| 1778153365 | 12.78° C | 27% | 1011.1 hPa | - | - | - | - |
| 1778152850 | 12.78° C | 26% | 1011.1 hPa | - | - | - | - |
| 1778152330 | 12.78° C | 26% | 1010.8 hPa | - | - | - | - |
| 1778151785 | 13.33° C | 26% | 1010.8 hPa | - | - | - | - |
| 1778151245 | 12.78° C | 26% | 1010.8 hPa | - | - | - | - |
| 1778150719 | 13.33° C | 26% | 1010.6 hPa | - | - | - | - |
| 1778150160 | 13.33° C | 26% | 1010.8 hPa | - | - | - | - |
| 1778149644 | 12.78° C | 26% | 1011.2 hPa | - | - | - | - |
| 1778149125 | 12.22° C | 27% | 1011.3 hPa | - | - | - | - |
| 1778148580 | 12.22° C | 26% | 1011.3 hPa | - | - | - | - |
| 1778148045 | 12.78° C | 27% | 1011 hPa | - | - | - | - |
| 1778147540 | 12.78° C | 27% | 1011 hPa | - | - | - | - |
| 1778147025 | 12.22° C | 28% | 1011.1 hPa | - | - | - | - |
| 1778146484 | 12.78° C | 26% | 1011.1 hPa | - | - | - | - |
| 1778145950 | 12.78° C | 26% | 1011.3 hPa | - | - | - | - |
| 1778145400 | 11.67° C | 26% | 1011.9 hPa | - | - | - | - |
| 1778144830 | 11.11° C | 27% | 1012.1 hPa | - | - | - | - |
| 1778144305 | 11.11° C | 27% | 1012 hPa | - | - | - | - |
| 1778143770 | 11.67° C | 27% | 1011.9 hPa | - | - | - | - |
| 1778143253 | 11.11° C | 26% | 1011.9 hPa | - | - | - | - |
| 1778142685 | 11.11° C | 26% | 1011.7 hPa | - | - | - | - |
| 1778142185 | 11.67° C | 26% | 1011.7 hPa | - | - | - | - |
* Rain since midnight (hover to see other rain measurements)
** Current wind speed in m/s (hover to see current wind gust speed)